Airfield :
LOGIN :

Register | Disclaimer

   EN    FR    IT 

 










Legend :    VFR   Marginal VFR   IFR   Intensive IFR   Very Intensive IFR
Visi :
Ceiling :
>= 8 km
>= 3000ft
5 to 8 km
1000 to 3000 ft
1500m to 5 km
500 to 1000 ft
800 to 1500m
200 to 500 ft
< 800m
< 200 ft
Symbols :   Thunderstorms  Fog  Heavy snow  Heavy precipitations  Wind > 20 kt
SIGMETs :     Misc.  Thunderstorms  Icing  Turbulence  Mountain Waves  Volcanic Ashes







- Airport Elevation : 495 ft
- IATA code : BUD


LHBP - Budapest Ferihegy

CURRENT METAR :
  • 232200Z 12010KT 9999 FEW038 BKN080 10/08 Q1016 NOSIG

EXPIRED METARs :
  • 232100Z 12009KT 9999 SCT037 BKN073 11/09 Q1016 NOSIG
  • 232030Z 11011KT 9999 -SHRA SCT038 BKN074 11/09 Q1016 NOSIG
  • 232000Z 10010KT 9999 FEW040 BKN078 11/09 Q1016 NOSIG
  • 231930Z 10011KT 9999 FEW040 BKN080 11/09 Q1016 NOSIG

TAF TAF LHBP
Valid from the 23 at 18:00 until the 24 at 18:00 UTC


231715Z 2318/2418 11012G23KT 9999 OVC040
TEMPO 2318/2323 -SHRA -RA BKN020 OVC030
BECMG 2323/2402 CAVOK
TEMPO 2408/2412 BKN025
TEMPO 2417/2418 -SHRA SCT050TCU
No reported NOTAMs for that airfield.



MET'MAP, your aeronautical weather chart ! - Copyright ORBIFLY December 2007 - Disclaimer

ORBIFLY MET'MAP TEAM :

Programming & Development : Alexandra Zaïnal
Concept & Development : Baudouin d'Aumeries
Co-Development & Prog : Marc-Olivier Méhu
Technical & hardware support : Manuel Goepfert

Contact : metmap@orbifly.com




SOURCES & CREDITS :

   NOAA